sensor_id;sensor_type;location;lat;lon;timestamp;P1;durP1;ratioP1;P2;durP2;ratioP2
7517;SDS011;3800;48.922;9.444;2024-01-25T00:00:06;17.47;;;4.33;;
7517;SDS011;3800;48.922;9.444;2024-01-25T00:02:37;15.87;;;3.93;;
7517;SDS011;3800;48.922;9.444;2024-01-25T00:05:05;17.87;;;4.23;;
7517;SDS011;3800;48.922;9.444;2024-01-25T00:07:33;18.80;;;3.93;;
7517;SDS011;3800;48.922;9.444;2024-01-25T00:10:02;20.50;;;4.53;;
7517;SDS011;3800;48.922;9.444;2024-01-25T00:12:31;18.23;;;4.23;;
7517;SDS011;3800;48.922;9.444;2024-01-25T00:15:00;15.80;;;3.90;;
7517;SDS011;3800;48.922;9.444;2024-01-25T00:17:29;15.47;;;4.23;;
7517;SDS011;3800;48.922;9.444;2024-01-25T00:19:57;21.20;;;4.53;;
7517;SDS011;3800;48.922;9.444;2024-01-25T00:22:26;12.47;;;3.70;;
7517;SDS011;3800;48.922;9.444;2024-01-25T00:24:54;17.47;;;4.60;;
7517;SDS011;3800;48.922;9.444;2024-01-25T00:27:23;16.10;;;4.10;;
7517;SDS011;3800;48.922;9.444;2024-01-25T00:29:52;15.83;;;4.10;;
7517;SDS011;3800;48.922;9.444;2024-01-25T00:32:20;13.47;;;3.97;;
7517;SDS011;3800;48.922;9.444;2024-01-25T00:34:49;18.17;;;3.73;;
7517;SDS011;3800;48.922;9.444;2024-01-25T00:37:17;19.07;;;3.97;;
7517;SDS011;3800;48.922;9.444;2024-01-25T00:39:47;21.03;;;4.63;;
7517;SDS011;3800;48.922;9.444;2024-01-25T00:42:16;16.70;;;3.87;;
7517;SDS011;3800;48.922;9.444;2024-01-25T00:44:47;15.87;;;4.20;;
7517;SDS011;3800;48.922;9.444;2024-01-25T00:47:16;17.20;;;4.63;;
7517;SDS011;3800;48.922;9.444;2024-01-25T00:49:45;14.70;;;3.83;;
7517;SDS011;3800;48.922;9.444;2024-01-25T00:52:14;20.47;;;3.93;;
7517;SDS011;3800;48.922;9.444;2024-01-25T00:54:43;16.83;;;4.33;;
7517;SDS011;3800;48.922;9.444;2024-01-25T00:57:13;18.13;;;3.83;;
7517;SDS011;3800;48.922;9.444;2024-01-25T00:59:41;19.87;;;4.30;;
7517;SDS011;3800;48.922;9.444;2024-01-25T01:02:12;21.73;;;4.23;;
7517;SDS011;3800;48.922;9.444;2024-01-25T01:04:41;16.70;;;4.37;;
7517;SDS011;3800;48.922;9.444;2024-01-25T01:07:10;19.00;;;4.27;;
7517;SDS011;3800;48.922;9.444;2024-01-25T01:09:40;13.33;;;4.20;;
7517;SDS011;3800;48.922;9.444;2024-01-25T01:12:10;20.67;;;4.40;;
7517;SDS011;3800;48.922;9.444;2024-01-25T01:14:40;16.23;;;4.50;;
7517;SDS011;3800;48.922;9.444;2024-01-25T01:17:08;19.60;;;3.77;;
7517;SDS011;3800;48.922;9.444;2024-01-25T01:19:37;17.77;;;4.37;;
7517;SDS011;3800;48.922;9.444;2024-01-25T01:22:05;19.57;;;4.30;;
7517;SDS011;3800;48.922;9.444;2024-01-25T01:24:34;16.93;;;4.17;;
7517;SDS011;3800;48.922;9.444;2024-01-25T01:27:03;18.37;;;3.97;;
7517;SDS011;3800;48.922;9.444;2024-01-25T01:29:31;14.80;;;4.07;;
7517;SDS011;3800;48.922;9.444;2024-01-25T01:31:59;19.73;;;4.30;;
7517;SDS011;3800;48.922;9.444;2024-01-25T01:34:27;18.80;;;4.50;;
7517;SDS011;3800;48.922;9.444;2024-01-25T01:36:57;18.83;;;4.57;;
7517;SDS011;3800;48.922;9.444;2024-01-25T01:39:25;18.37;;;4.53;;
7517;SDS011;3800;48.922;9.444;2024-01-25T01:41:53;21.60;;;4.43;;
7517;SDS011;3800;48.922;9.444;2024-01-25T01:44:22;20.90;;;4.47;;
7517;SDS011;3800;48.922;9.444;2024-01-25T01:46:52;22.00;;;4.83;;
7517;SDS011;3800;48.922;9.444;2024-01-25T01:49:20;25.23;;;4.57;;
7517;SDS011;3800;48.922;9.444;2024-01-25T01:51:48;21.97;;;4.67;;
7517;SDS011;3800;48.922;9.444;2024-01-25T01:54:17;18.93;;;4.40;;
7517;SDS011;3800;48.922;9.444;2024-01-25T01:56:47;18.33;;;4.30;;
7517;SDS011;3800;48.922;9.444;2024-01-25T01:59:15;17.20;;;4.13;;
7517;SDS011;3800;48.922;9.444;2024-01-25T02:01:44;18.07;;;4.40;;
7517;SDS011;3800;48.922;9.444;2024-01-25T02:04:13;23.13;;;5.30;;
7517;SDS011;3800;48.922;9.444;2024-01-25T02:06:42;17.37;;;3.93;;
7517;SDS011;3800;48.922;9.444;2024-01-25T02:09:12;15.93;;;4.60;;
7517;SDS011;3800;48.922;9.444;2024-01-25T02:11:40;18.60;;;4.10;;
7517;SDS011;3800;48.922;9.444;2024-01-25T02:14:09;16.03;;;4.00;;
7517;SDS011;3800;48.922;9.444;2024-01-25T02:16:37;15.73;;;4.17;;
7517;SDS011;3800;48.922;9.444;2024-01-25T02:19:06;13.97;;;4.17;;
7517;SDS011;3800;48.922;9.444;2024-01-25T02:21:34;22.13;;;4.70;;
7517;SDS011;3800;48.922;9.444;2024-01-25T02:24:05;19.40;;;4.57;;
7517;SDS011;3800;48.922;9.444;2024-01-25T02:26:35;17.93;;;4.30;;
7517;SDS011;3800;48.922;9.444;2024-01-25T02:29:03;15.40;;;4.00;;
7517;SDS011;3800;48.922;9.444;2024-01-25T02:31:32;18.43;;;4.20;;
7517;SDS011;3800;48.922;9.444;2024-01-25T02:34:01;21.77;;;3.83;;
7517;SDS011;3800;48.922;9.444;2024-01-25T02:36:30;13.60;;;3.60;;
7517;SDS011;3800;48.922;9.444;2024-01-25T02:38:58;16.30;;;4.03;;
7517;SDS011;3800;48.922;9.444;2024-01-25T02:41:29;16.63;;;5.00;;
7517;SDS011;3800;48.922;9.444;2024-01-25T02:44:00;22.13;;;5.50;;
7517;SDS011;3800;48.922;9.444;2024-01-25T02:46:26;16.23;;;4.20;;
7517;SDS011;3800;48.922;9.444;2024-01-25T02:48:54;19.87;;;4.27;;
7517;SDS011;3800;48.922;9.444;2024-01-25T02:51:23;14.83;;;3.43;;
7517;SDS011;3800;48.922;9.444;2024-01-25T02:53:52;17.17;;;4.13;;
7517;SDS011;3800;48.922;9.444;2024-01-25T02:56:21;18.27;;;4.63;;
7517;SDS011;3800;48.922;9.444;2024-01-25T02:58:50;13.93;;;4.00;;
7517;SDS011;3800;48.922;9.444;2024-01-25T03:01:18;16.60;;;3.97;;
7517;SDS011;3800;48.922;9.444;2024-01-25T03:03:47;10.40;;;3.70;;
7517;SDS011;3800;48.922;9.444;2024-01-25T03:06:16;17.47;;;3.93;;
7517;SDS011;3800;48.922;9.444;2024-01-25T03:08:44;14.63;;;3.77;;
7517;SDS011;3800;48.922;9.444;2024-01-25T03:11:13;17.73;;;4.20;;
7517;SDS011;3800;48.922;9.444;2024-01-25T03:13:41;11.77;;;3.83;;
7517;SDS011;3800;48.922;9.444;2024-01-25T03:16:10;14.73;;;5.13;;
7517;SDS011;3800;48.922;9.444;2024-01-25T03:18:40;17.50;;;4.47;;
7517;SDS011;3800;48.922;9.444;2024-01-25T03:21:08;16.63;;;4.07;;
7517;SDS011;3800;48.922;9.444;2024-01-25T03:23:37;16.37;;;3.73;;
7517;SDS011;3800;48.922;9.444;2024-01-25T03:26:06;15.77;;;3.80;;
7517;SDS011;3800;48.922;9.444;2024-01-25T03:28:34;17.63;;;4.13;;
7517;SDS011;3800;48.922;9.444;2024-01-25T03:31:02;19.83;;;4.13;;
7517;SDS011;3800;48.922;9.444;2024-01-25T03:33:31;17.97;;;3.97;;
7517;SDS011;3800;48.922;9.444;2024-01-25T03:36:02;14.47;;;3.80;;
7517;SDS011;3800;48.922;9.444;2024-01-25T03:38:30;22.37;;;5.43;;
7517;SDS011;3800;48.922;9.444;2024-01-25T03:40:59;15.77;;;3.87;;
7517;SDS011;3800;48.922;9.444;2024-01-25T03:43:27;16.90;;;3.80;;
7517;SDS011;3800;48.922;9.444;2024-01-25T03:45:56;20.27;;;4.80;;
7517;SDS011;3800;48.922;9.444;2024-01-25T03:48:25;16.37;;;4.37;;
7517;SDS011;3800;48.922;9.444;2024-01-25T03:50:53;16.93;;;4.47;;
7517;SDS011;3800;48.922;9.444;2024-01-25T03:53:22;19.20;;;4.07;;
7517;SDS011;3800;48.922;9.444;2024-01-25T03:55:51;14.83;;;4.17;;
7517;SDS011;3800;48.922;9.444;2024-01-25T03:58:19;16.63;;;4.10;;
7517;SDS011;3800;48.922;9.444;2024-01-25T04:00:47;18.70;;;4.00;;
7517;SDS011;3800;48.922;9.444;2024-01-25T04:03:16;18.00;;;4.33;;
7517;SDS011;3800;48.922;9.444;2024-01-25T04:05:46;17.20;;;4.33;;
7517;SDS011;3800;48.922;9.444;2024-01-25T04:08:14;16.50;;;3.90;;
7517;SDS011;3800;48.922;9.444;2024-01-25T04:10:44;17.43;;;5.13;;
7517;SDS011;3800;48.922;9.444;2024-01-25T04:13:13;14.27;;;4.13;;
7517;SDS011;3800;48.922;9.444;2024-01-25T04:15:42;17.73;;;4.00;;
7517;SDS011;3800;48.922;9.444;2024-01-25T04:18:11;13.37;;;3.80;;
7517;SDS011;3800;48.922;9.444;2024-01-25T04:20:39;19.80;;;4.63;;
7517;SDS011;3800;48.922;9.444;2024-01-25T04:23:07;15.90;;;4.37;;
7517;SDS011;3800;48.922;9.444;2024-01-25T04:25:35;16.20;;;4.00;;
7517;SDS011;3800;48.922;9.444;2024-01-25T04:28:05;18.53;;;4.17;;
7517;SDS011;3800;48.922;9.444;2024-01-25T04:30:33;19.00;;;4.03;;
7517;SDS011;3800;48.922;9.444;2024-01-25T04:33:02;13.17;;;3.70;;
7517;SDS011;3800;48.922;9.444;2024-01-25T04:35:32;15.83;;;4.03;;
7517;SDS011;3800;48.922;9.444;2024-01-25T04:38:01;18.50;;;4.53;;
7517;SDS011;3800;48.922;9.444;2024-01-25T04:40:29;20.97;;;4.37;;
7517;SDS011;3800;48.922;9.444;2024-01-25T04:42:58;14.77;;;3.93;;
7517;SDS011;3800;48.922;9.444;2024-01-25T04:45:27;16.30;;;3.97;;
7517;SDS011;3800;48.922;9.444;2024-01-25T04:47:56;21.87;;;4.10;;
7517;SDS011;3800;48.922;9.444;2024-01-25T04:50:24;18.43;;;4.53;;
7517;SDS011;3800;48.922;9.444;2024-01-25T04:52:52;21.63;;;5.57;;
7517;SDS011;3800;48.922;9.444;2024-01-25T04:55:21;20.97;;;5.33;;
7517;SDS011;3800;48.922;9.444;2024-01-25T04:57:49;19.03;;;5.27;;
7517;SDS011;3800;48.922;9.444;2024-01-25T05:00:17;17.57;;;4.50;;
7517;SDS011;3800;48.922;9.444;2024-01-25T05:02:47;14.77;;;3.80;;
7517;SDS011;3800;48.922;9.444;2024-01-25T05:05:15;17.23;;;3.93;;
7517;SDS011;3800;48.922;9.444;2024-01-25T05:07:44;20.13;;;5.00;;
7517;SDS011;3800;48.922;9.444;2024-01-25T05:10:13;16.57;;;4.33;;
7517;SDS011;3800;48.922;9.444;2024-01-25T05:12:41;15.63;;;4.03;;
7517;SDS011;3800;48.922;9.444;2024-01-25T05:15:10;15.27;;;3.60;;
7517;SDS011;3800;48.922;9.444;2024-01-25T05:17:40;17.63;;;4.30;;
7517;SDS011;3800;48.922;9.444;2024-01-25T05:20:09;15.23;;;4.53;;
7517;SDS011;3800;48.922;9.444;2024-01-25T05:22:37;17.80;;;4.10;;
7517;SDS011;3800;48.922;9.444;2024-01-25T05:25:06;18.00;;;4.87;;
7517;SDS011;3800;48.922;9.444;2024-01-25T05:27:35;22.33;;;4.43;;
7517;SDS011;3800;48.922;9.444;2024-01-25T05:30:03;20.07;;;4.30;;
7517;SDS011;3800;48.922;9.444;2024-01-25T05:32:32;11.80;;;4.20;;
7517;SDS011;3800;48.922;9.444;2024-01-25T05:35:02;18.47;;;4.53;;
7517;SDS011;3800;48.922;9.444;2024-01-25T05:37:31;21.37;;;4.60;;
7517;SDS011;3800;48.922;9.444;2024-01-25T05:40:00;15.90;;;4.23;;
7517;SDS011;3800;48.922;9.444;2024-01-25T05:42:28;17.50;;;5.07;;
7517;SDS011;3800;48.922;9.444;2024-01-25T05:44:57;18.57;;;4.93;;
7517;SDS011;3800;48.922;9.444;2024-01-25T05:47:26;17.37;;;4.13;;
7517;SDS011;3800;48.922;9.444;2024-01-25T05:49:55;15.77;;;3.80;;
7517;SDS011;3800;48.922;9.444;2024-01-25T05:52:24;18.30;;;5.10;;
7517;SDS011;3800;48.922;9.444;2024-01-25T05:54:52;15.17;;;4.53;;
7517;SDS011;3800;48.922;9.444;2024-01-25T05:57:21;16.13;;;4.90;;
7517;SDS011;3800;48.922;9.444;2024-01-25T05:59:49;19.97;;;4.30;;
7517;SDS011;3800;48.922;9.444;2024-01-25T06:02:17;17.23;;;3.83;;
7517;SDS011;3800;48.922;9.444;2024-01-25T06:04:46;17.20;;;4.30;;
7517;SDS011;3800;48.922;9.444;2024-01-25T06:07:15;17.00;;;4.63;;
7517;SDS011;3800;48.922;9.444;2024-01-25T06:09:43;15.93;;;4.40;;
7517;SDS011;3800;48.922;9.444;2024-01-25T06:12:12;20.30;;;4.53;;
7517;SDS011;3800;48.922;9.444;2024-01-25T06:14:40;17.53;;;4.83;;
7517;SDS011;3800;48.922;9.444;2024-01-25T06:17:08;15.83;;;4.10;;
7517;SDS011;3800;48.922;9.444;2024-01-25T06:19:37;19.67;;;4.17;;
7517;SDS011;3800;48.922;9.444;2024-01-25T06:22:05;19.87;;;4.10;;
7517;SDS011;3800;48.922;9.444;2024-01-25T06:24:34;18.63;;;5.10;;
7517;SDS011;3800;48.922;9.444;2024-01-25T06:27:03;19.40;;;4.90;;
7517;SDS011;3800;48.922;9.444;2024-01-25T06:29:32;18.33;;;4.83;;
7517;SDS011;3800;48.922;9.444;2024-01-25T06:32:00;16.57;;;4.17;;
7517;SDS011;3800;48.922;9.444;2024-01-25T06:34:29;18.57;;;4.50;;
7517;SDS011;3800;48.922;9.444;2024-01-25T06:36:57;17.03;;;3.97;;
7517;SDS011;3800;48.922;9.444;2024-01-25T06:39:25;18.77;;;4.37;;
7517;SDS011;3800;48.922;9.444;2024-01-25T06:41:53;15.40;;;4.53;;
7517;SDS011;3800;48.922;9.444;2024-01-25T06:44:22;16.47;;;5.40;;
7517;SDS011;3800;48.922;9.444;2024-01-25T06:46:50;15.20;;;4.50;;
7517;SDS011;3800;48.922;9.444;2024-01-25T06:49:18;16.37;;;5.30;;
7517;SDS011;3800;48.922;9.444;2024-01-25T06:51:47;16.77;;;4.87;;
7517;SDS011;3800;48.922;9.444;2024-01-25T06:54:15;13.23;;;4.30;;
7517;SDS011;3800;48.922;9.444;2024-01-25T06:56:43;14.30;;;4.10;;
7517;SDS011;3800;48.922;9.444;2024-01-25T06:59:12;17.37;;;4.83;;
7517;SDS011;3800;48.922;9.444;2024-01-25T07:01:40;15.70;;;4.80;;
7517;SDS011;3800;48.922;9.444;2024-01-25T07:04:08;16.10;;;4.23;;
7517;SDS011;3800;48.922;9.444;2024-01-25T07:06:37;16.77;;;4.50;;
7517;SDS011;3800;48.922;9.444;2024-01-25T07:09:05;17.57;;;4.23;;
7517;SDS011;3800;48.922;9.444;2024-01-25T07:11:34;18.60;;;4.67;;
7517;SDS011;3800;48.922;9.444;2024-01-25T07:14:02;18.53;;;4.70;;
7517;SDS011;3800;48.922;9.444;2024-01-25T07:16:33;16.07;;;4.20;;
7517;SDS011;3800;48.922;9.444;2024-01-25T07:19:01;18.93;;;5.13;;
7517;SDS011;3800;48.922;9.444;2024-01-25T07:21:30;22.87;;;5.63;;
7517;SDS011;3800;48.922;9.444;2024-01-25T07:23:59;17.37;;;4.73;;
7517;SDS011;3800;48.922;9.444;2024-01-25T07:26:27;13.10;;;4.83;;
7517;SDS011;3800;48.922;9.444;2024-01-25T07:28:55;22.17;;;5.63;;
7517;SDS011;3800;48.922;9.444;2024-01-25T07:31:26;17.30;;;5.53;;
7517;SDS011;3800;48.922;9.444;2024-01-25T07:33:53;16.30;;;4.50;;
7517;SDS011;3800;48.922;9.444;2024-01-25T07:36:22;19.57;;;4.90;;
7517;SDS011;3800;48.922;9.444;2024-01-25T07:38:54;18.63;;;5.23;;
7517;SDS011;3800;48.922;9.444;2024-01-25T07:41:22;20.33;;;5.57;;
7517;SDS011;3800;48.922;9.444;2024-01-25T07:43:51;23.03;;;6.03;;
7517;SDS011;3800;48.922;9.444;2024-01-25T07:46:21;20.03;;;6.37;;
7517;SDS011;3800;48.922;9.444;2024-01-25T07:48:49;26.13;;;7.00;;
7517;SDS011;3800;48.922;9.444;2024-01-25T07:51:17;18.03;;;5.50;;
7517;SDS011;3800;48.922;9.444;2024-01-25T07:53:46;21.50;;;6.43;;
7517;SDS011;3800;48.922;9.444;2024-01-25T07:56:16;21.60;;;6.27;;
7517;SDS011;3800;48.922;9.444;2024-01-25T07:58:44;21.67;;;5.53;;
7517;SDS011;3800;48.922;9.444;2024-01-25T08:01:17;19.80;;;5.30;;
7517;SDS011;3800;48.922;9.444;2024-01-25T08:03:45;18.43;;;5.03;;
7517;SDS011;3800;48.922;9.444;2024-01-25T08:06:14;13.30;;;4.57;;
7517;SDS011;3800;48.922;9.444;2024-01-25T08:08:42;16.20;;;4.57;;
7517;SDS011;3800;48.922;9.444;2024-01-25T08:11:10;15.80;;;4.73;;
7517;SDS011;3800;48.922;9.444;2024-01-25T08:13:42;22.43;;;5.50;;
7517;SDS011;3800;48.922;9.444;2024-01-25T08:16:10;18.33;;;4.57;;
7517;SDS011;3800;48.922;9.444;2024-01-25T08:18:40;16.50;;;5.17;;
7517;SDS011;3800;48.922;9.444;2024-01-25T08:21:08;19.43;;;5.33;;
7517;SDS011;3800;48.922;9.444;2024-01-25T08:23:38;16.37;;;5.97;;
7517;SDS011;3800;48.922;9.444;2024-01-25T08:26:06;17.50;;;5.37;;
7517;SDS011;3800;48.922;9.444;2024-01-25T08:28:38;17.60;;;5.30;;
7517;SDS011;3800;48.922;9.444;2024-01-25T08:31:06;21.50;;;5.40;;
7517;SDS011;3800;48.922;9.444;2024-01-25T08:33:34;19.87;;;6.73;;
7517;SDS011;3800;48.922;9.444;2024-01-25T08:36:03;24.63;;;6.00;;
7517;SDS011;3800;48.922;9.444;2024-01-25T08:38:32;23.60;;;4.97;;
7517;SDS011;3800;48.922;9.444;2024-01-25T08:41:01;18.30;;;5.07;;
7517;SDS011;3800;48.922;9.444;2024-01-25T08:43:30;17.83;;;5.63;;
7517;SDS011;3800;48.922;9.444;2024-01-25T08:45:58;19.47;;;4.87;;
7517;SDS011;3800;48.922;9.444;2024-01-25T08:48:26;16.53;;;5.27;;
7517;SDS011;3800;48.922;9.444;2024-01-25T08:50:55;16.87;;;4.43;;
7517;SDS011;3800;48.922;9.444;2024-01-25T08:53:23;16.23;;;4.30;;
7517;SDS011;3800;48.922;9.444;2024-01-25T08:55:51;18.43;;;5.23;;
7517;SDS011;3800;48.922;9.444;2024-01-25T08:58:21;20.33;;;5.07;;
7517;SDS011;3800;48.922;9.444;2024-01-25T09:00:49;19.33;;;4.80;;
7517;SDS011;3800;48.922;9.444;2024-01-25T09:03:18;18.00;;;5.27;;
7517;SDS011;3800;48.922;9.444;2024-01-25T09:05:46;19.40;;;5.03;;
7517;SDS011;3800;48.922;9.444;2024-01-25T09:08:14;21.00;;;5.20;;
7517;SDS011;3800;48.922;9.444;2024-01-25T09:10:43;19.77;;;4.27;;
7517;SDS011;3800;48.922;9.444;2024-01-25T09:13:11;17.27;;;4.53;;
7517;SDS011;3800;48.922;9.444;2024-01-25T09:15:40;20.90;;;4.97;;
7517;SDS011;3800;48.922;9.444;2024-01-25T09:18:08;17.10;;;4.87;;
7517;SDS011;3800;48.922;9.444;2024-01-25T09:20:37;21.03;;;4.63;;
7517;SDS011;3800;48.922;9.444;2024-01-25T09:23:06;23.30;;;5.00;;
7517;SDS011;3800;48.922;9.444;2024-01-25T09:25:35;21.90;;;5.13;;
7517;SDS011;3800;48.922;9.444;2024-01-25T09:28:03;14.33;;;4.30;;
7517;SDS011;3800;48.922;9.444;2024-01-25T09:30:31;21.83;;;5.17;;
7517;SDS011;3800;48.922;9.444;2024-01-25T09:33:00;24.37;;;4.77;;
7517;SDS011;3800;48.922;9.444;2024-01-25T09:35:28;16.40;;;5.07;;
7517;SDS011;3800;48.922;9.444;2024-01-25T09:37:56;20.83;;;4.90;;
7517;SDS011;3800;48.922;9.444;2024-01-25T09:40:25;21.13;;;5.27;;
7517;SDS011;3800;48.922;9.444;2024-01-25T09:42:54;17.17;;;4.87;;
7517;SDS011;3800;48.922;9.444;2024-01-25T09:45:22;22.50;;;5.60;;
7517;SDS011;3800;48.922;9.444;2024-01-25T09:47:50;21.57;;;4.90;;
7517;SDS011;3800;48.922;9.444;2024-01-25T09:50:18;16.03;;;4.70;;
7517;SDS011;3800;48.922;9.444;2024-01-25T09:52:50;24.10;;;6.07;;
7517;SDS011;3800;48.922;9.444;2024-01-25T09:55:16;13.50;;;5.47;;
7517;SDS011;3800;48.922;9.444;2024-01-25T09:57:46;22.77;;;5.37;;
7517;SDS011;3800;48.922;9.444;2024-01-25T10:00:15;24.10;;;4.67;;
7517;SDS011;3800;48.922;9.444;2024-01-25T10:02:44;21.40;;;5.13;;
7517;SDS011;3800;48.922;9.444;2024-01-25T10:05:12;16.83;;;4.73;;
7517;SDS011;3800;48.922;9.444;2024-01-25T10:07:42;20.37;;;5.10;;
7517;SDS011;3800;48.922;9.444;2024-01-25T10:10:10;23.93;;;5.17;;
7517;SDS011;3800;48.922;9.444;2024-01-25T10:12:39;18.23;;;4.97;;
7517;SDS011;3800;48.922;9.444;2024-01-25T10:15:07;16.43;;;4.77;;
7517;SDS011;3800;48.922;9.444;2024-01-25T10:17:38;21.57;;;4.67;;
7517;SDS011;3800;48.922;9.444;2024-01-25T10:20:07;22.90;;;4.50;;
7517;SDS011;3800;48.922;9.444;2024-01-25T10:22:36;17.83;;;4.13;;
7517;SDS011;3800;48.922;9.444;2024-01-25T10:25:14;20.90;;;4.70;;
7517;SDS011;3800;48.922;9.444;2024-01-25T10:27:42;21.43;;;5.20;;
7517;SDS011;3800;48.922;9.444;2024-01-25T10:30:11;13.70;;;4.57;;
7517;SDS011;3800;48.922;9.444;2024-01-25T10:32:41;17.37;;;4.73;;
7517;SDS011;3800;48.922;9.444;2024-01-25T10:35:09;18.33;;;5.20;;
7517;SDS011;3800;48.922;9.444;2024-01-25T10:37:37;16.23;;;5.07;;
7517;SDS011;3800;48.922;9.444;2024-01-25T10:40:06;18.30;;;5.03;;
7517;SDS011;3800;48.922;9.444;2024-01-25T10:42:39;19.50;;;4.43;;
7517;SDS011;3800;48.922;9.444;2024-01-25T10:45:07;15.77;;;4.67;;
7517;SDS011;3800;48.922;9.444;2024-01-25T10:47:36;21.23;;;4.60;;
7517;SDS011;3800;48.922;9.444;2024-01-25T10:50:04;21.30;;;6.23;;
7517;SDS011;3800;48.922;9.444;2024-01-25T10:52:33;20.00;;;4.90;;
7517;SDS011;3800;48.922;9.444;2024-01-25T10:55:02;18.50;;;4.03;;
7517;SDS011;3800;48.922;9.444;2024-01-25T10:57:35;19.00;;;5.13;;
7517;SDS011;3800;48.922;9.444;2024-01-25T11:00:06;19.43;;;5.13;;
7517;SDS011;3800;48.922;9.444;2024-01-25T11:02:36;18.80;;;4.33;;
7517;SDS011;3800;48.922;9.444;2024-01-25T11:05:14;15.47;;;4.00;;
7517;SDS011;3800;48.922;9.444;2024-01-25T11:07:44;15.63;;;4.07;;
7517;SDS011;3800;48.922;9.444;2024-01-25T11:10:15;21.43;;;4.10;;
7517;SDS011;3800;48.922;9.444;2024-01-25T11:12:49;18.47;;;4.17;;
7517;SDS011;3800;48.922;9.444;2024-01-25T11:15:19;13.37;;;4.07;;
7517;SDS011;3800;48.922;9.444;2024-01-25T11:17:50;20.47;;;4.90;;
7517;SDS011;3800;48.922;9.444;2024-01-25T11:20:26;16.73;;;4.67;;
7517;SDS011;3800;48.922;9.444;2024-01-25T11:23:03;12.53;;;4.50;;
7517;SDS011;3800;48.922;9.444;2024-01-25T11:25:32;17.37;;;4.47;;
7517;SDS011;3800;48.922;9.444;2024-01-25T11:28:01;16.13;;;4.20;;
7517;SDS011;3800;48.922;9.444;2024-01-25T11:30:29;19.97;;;4.93;;
7517;SDS011;3800;48.922;9.444;2024-01-25T11:33:03;24.30;;;4.77;;
7517;SDS011;3800;48.922;9.444;2024-01-25T11:35:31;17.73;;;4.10;;
7517;SDS011;3800;48.922;9.444;2024-01-25T11:38:00;23.60;;;5.23;;
7517;SDS011;3800;48.922;9.444;2024-01-25T11:40:29;17.47;;;4.23;;
7517;SDS011;3800;48.922;9.444;2024-01-25T11:42:58;16.97;;;4.80;;
7517;SDS011;3800;48.922;9.444;2024-01-25T11:45:26;13.73;;;4.40;;
7517;SDS011;3800;48.922;9.444;2024-01-25T11:47:54;18.87;;;4.97;;
7517;SDS011;3800;48.922;9.444;2024-01-25T11:50:22;21.20;;;4.37;;
7517;SDS011;3800;48.922;9.444;2024-01-25T11:52:51;18.00;;;4.97;;
7517;SDS011;3800;48.922;9.444;2024-01-25T11:55:19;19.30;;;4.53;;
7517;SDS011;3800;48.922;9.444;2024-01-25T11:57:47;24.43;;;5.10;;
7517;SDS011;3800;48.922;9.444;2024-01-25T12:00:16;10.93;;;3.90;;
7517;SDS011;3800;48.922;9.444;2024-01-25T12:02:45;20.60;;;4.43;;
7517;SDS011;3800;48.922;9.444;2024-01-25T12:05:14;23.40;;;5.17;;
7517;SDS011;3800;48.922;9.444;2024-01-25T12:07:42;13.20;;;4.20;;
7517;SDS011;3800;48.922;9.444;2024-01-25T12:10:16;18.80;;;4.87;;
7517;SDS011;3800;48.922;9.444;2024-01-25T12:12:39;16.33;;;4.53;;
7517;SDS011;3800;48.922;9.444;2024-01-25T12:15:09;19.37;;;5.57;;
7517;SDS011;3800;48.922;9.444;2024-01-25T12:17:37;18.27;;;4.60;;
7517;SDS011;3800;48.922;9.444;2024-01-25T12:20:07;15.97;;;4.63;;
7517;SDS011;3800;48.922;9.444;2024-01-25T12:22:37;16.00;;;4.60;;
7517;SDS011;3800;48.922;9.444;2024-01-25T12:25:06;17.83;;;4.73;;
7517;SDS011;3800;48.922;9.444;2024-01-25T12:27:38;21.00;;;4.77;;
7517;SDS011;3800;48.922;9.444;2024-01-25T12:30:06;15.23;;;4.37;;
7517;SDS011;3800;48.922;9.444;2024-01-25T12:32:35;14.80;;;4.73;;
7517;SDS011;3800;48.922;9.444;2024-01-25T12:35:04;15.50;;;4.03;;
7517;SDS011;3800;48.922;9.444;2024-01-25T12:37:33;15.10;;;4.00;;
7517;SDS011;3800;48.922;9.444;2024-01-25T12:40:01;20.50;;;4.60;;
7517;SDS011;3800;48.922;9.444;2024-01-25T12:42:30;15.67;;;4.87;;
7517;SDS011;3800;48.922;9.444;2024-01-25T12:44:59;16.50;;;4.00;;
7517;SDS011;3800;48.922;9.444;2024-01-25T12:47:28;18.07;;;4.30;;
7517;SDS011;3800;48.922;9.444;2024-01-25T12:49:56;14.33;;;3.80;;
7517;SDS011;3800;48.922;9.444;2024-01-25T12:52:24;12.10;;;3.83;;
7517;SDS011;3800;48.922;9.444;2024-01-25T12:54:53;18.03;;;4.27;;
7517;SDS011;3800;48.922;9.444;2024-01-25T12:57:21;13.10;;;4.07;;
7517;SDS011;3800;48.922;9.444;2024-01-25T12:59:49;15.70;;;4.60;;
7517;SDS011;3800;48.922;9.444;2024-01-25T13:02:18;11.27;;;3.90;;
7517;SDS011;3800;48.922;9.444;2024-01-25T13:04:46;13.90;;;3.70;;
7517;SDS011;3800;48.922;9.444;2024-01-25T13:07:15;13.27;;;3.53;;
7517;SDS011;3800;48.922;9.444;2024-01-25T13:09:44;12.50;;;3.70;;
7517;SDS011;3800;48.922;9.444;2024-01-25T13:12:12;12.17;;;3.20;;
7517;SDS011;3800;48.922;9.444;2024-01-25T13:14:40;9.43;;;3.30;;
7517;SDS011;3800;48.922;9.444;2024-01-25T13:17:09;8.77;;;3.03;;
7517;SDS011;3800;48.922;9.444;2024-01-25T13:19:37;12.83;;;3.43;;
7517;SDS011;3800;48.922;9.444;2024-01-25T13:22:06;10.37;;;3.27;;
7517;SDS011;3800;48.922;9.444;2024-01-25T13:24:34;13.30;;;3.90;;
7517;SDS011;3800;48.922;9.444;2024-01-25T13:27:03;12.50;;;3.10;;
7517;SDS011;3800;48.922;9.444;2024-01-25T13:29:31;15.70;;;4.20;;
7517;SDS011;3800;48.922;9.444;2024-01-25T13:31:59;10.87;;;3.53;;
7517;SDS011;3800;48.922;9.444;2024-01-25T13:34:27;13.90;;;3.10;;
7517;SDS011;3800;48.922;9.444;2024-01-25T13:36:56;11.97;;;3.23;;
7517;SDS011;3800;48.922;9.444;2024-01-25T13:39:24;14.00;;;3.10;;
7517;SDS011;3800;48.922;9.444;2024-01-25T13:41:55;11.13;;;2.93;;
7517;SDS011;3800;48.922;9.444;2024-01-25T13:44:24;10.50;;;3.10;;
7517;SDS011;3800;48.922;9.444;2024-01-25T13:46:52;10.20;;;2.97;;
7517;SDS011;3800;48.922;9.444;2024-01-25T13:49:20;15.13;;;3.60;;
7517;SDS011;3800;48.922;9.444;2024-01-25T13:51:48;11.00;;;3.37;;
7517;SDS011;3800;48.922;9.444;2024-01-25T13:54:17;11.53;;;3.37;;
7517;SDS011;3800;48.922;9.444;2024-01-25T13:56:45;10.83;;;3.27;;
7517;SDS011;3800;48.922;9.444;2024-01-25T13:59:13;12.17;;;3.43;;
7517;SDS011;3800;48.922;9.444;2024-01-25T14:01:42;10.00;;;3.00;;
7517;SDS011;3800;48.922;9.444;2024-01-25T14:04:11;8.73;;;3.33;;
7517;SDS011;3800;48.922;9.444;2024-01-25T14:06:39;14.73;;;3.67;;
7517;SDS011;3800;48.922;9.444;2024-01-25T14:09:08;12.83;;;3.27;;
7517;SDS011;3800;48.922;9.444;2024-01-25T14:11:36;10.90;;;3.00;;
7517;SDS011;3800;48.922;9.444;2024-01-25T14:14:04;11.33;;;3.43;;
7517;SDS011;3800;48.922;9.444;2024-01-25T14:16:33;12.47;;;3.87;;
7517;SDS011;3800;48.922;9.444;2024-01-25T14:19:02;9.97;;;3.00;;
7517;SDS011;3800;48.922;9.444;2024-01-25T14:21:31;9.37;;;2.87;;
7517;SDS011;3800;48.922;9.444;2024-01-25T14:23:59;8.60;;;3.00;;
7517;SDS011;3800;48.922;9.444;2024-01-25T14:26:27;13.30;;;3.30;;
7517;SDS011;3800;48.922;9.444;2024-01-25T14:28:56;14.67;;;3.27;;
7517;SDS011;3800;48.922;9.444;2024-01-25T14:31:24;10.13;;;3.10;;
7517;SDS011;3800;48.922;9.444;2024-01-25T14:33:52;8.07;;;2.60;;
7517;SDS011;3800;48.922;9.444;2024-01-25T14:36:21;10.27;;;2.93;;
7517;SDS011;3800;48.922;9.444;2024-01-25T14:38:49;8.10;;;3.10;;
7517;SDS011;3800;48.922;9.444;2024-01-25T14:41:17;12.47;;;5.17;;
7517;SDS011;3800;48.922;9.444;2024-01-25T14:43:46;9.83;;;3.43;;
7517;SDS011;3800;48.922;9.444;2024-01-25T14:46:14;11.00;;;3.07;;
7517;SDS011;3800;48.922;9.444;2024-01-25T14:48:42;10.97;;;3.50;;
7517;SDS011;3800;48.922;9.444;2024-01-25T14:51:10;12.13;;;3.30;;
7517;SDS011;3800;48.922;9.444;2024-01-25T14:53:39;10.97;;;3.47;;
7517;SDS011;3800;48.922;9.444;2024-01-25T14:56:08;12.33;;;3.73;;
7517;SDS011;3800;48.922;9.444;2024-01-25T14:58:36;11.27;;;3.50;;
7517;SDS011;3800;48.922;9.444;2024-01-25T15:01:05;10.83;;;3.53;;
7517;SDS011;3800;48.922;9.444;2024-01-25T15:03:33;10.47;;;3.43;;
7517;SDS011;3800;48.922;9.444;2024-01-25T15:06:02;11.00;;;2.83;;
7517;SDS011;3800;48.922;9.444;2024-01-25T15:08:30;9.93;;;2.97;;
7517;SDS011;3800;48.922;9.444;2024-01-25T15:10:58;11.63;;;3.30;;